createdAt,value
2019-05-01T00:00:18.828Z,50.83
2019-05-01T00:03:05.295Z,48.63
2019-05-01T00:05:41.558Z,46.13
2019-05-01T00:08:10.676Z,47.93
2019-05-01T00:10:39.397Z,46.13
2019-05-01T00:13:08.130Z,52.53
2019-05-01T00:15:38.759Z,47.47
2019-05-01T00:18:07.726Z,45.50
2019-05-01T00:20:36.419Z,51.33
2019-05-01T00:23:05.240Z,51.50
2019-05-01T00:25:33.851Z,48.87
2019-05-01T00:28:02.498Z,44.93
2019-05-01T00:30:31.752Z,44.87
2019-05-01T00:33:00.302Z,52.07
2019-05-01T00:35:29.404Z,50.53
2019-05-01T00:37:58.895Z,48.60
2019-05-01T00:40:27.427Z,51.47
2019-05-01T00:42:56.653Z,42.93
2019-05-01T00:45:25.214Z,49.50
2019-05-01T00:47:54.035Z,51.87
2019-05-01T00:50:22.756Z,45.07
2019-05-01T00:52:51.599Z,48.00
2019-05-01T00:55:40.247Z,52.13
2019-05-01T00:58:16.205Z,49.70
2019-05-01T01:01:02.579Z,45.30
2019-05-01T01:03:50.759Z,52.77
2019-05-01T01:06:19.616Z,49.30
2019-05-01T01:08:48.243Z,46.93
2019-05-01T01:11:17.156Z,46.50
2019-05-01T01:13:46.201Z,40.07
2019-05-01T01:16:16.441Z,46.67
2019-05-01T01:18:45.159Z,42.23
2019-05-01T01:21:13.711Z,40.17
2019-05-01T01:23:43.193Z,40.00
2019-05-01T01:26:11.817Z,42.83
2019-05-01T01:28:40.399Z,39.57
2019-05-01T01:31:08.944Z,38.30
2019-05-01T01:33:37.579Z,42.20
2019-05-01T01:36:06.199Z,33.43
2019-05-01T01:38:34.902Z,36.13
2019-05-01T01:41:03.685Z,42.60
2019-05-01T01:43:51.898Z,39.23
2019-05-01T01:46:28.221Z,33.90
2019-05-01T01:48:57.422Z,38.93
2019-05-01T01:51:26.211Z,38.17
2019-05-01T01:53:55.030Z,38.20
2019-05-01T01:56:23.750Z,38.60
2019-05-01T01:58:53.462Z,38.37
2019-05-01T02:01:35.411Z,34.27
2019-05-01T02:04:18.025Z,36.37
2019-05-01T02:06:47.775Z,37.33
2019-05-01T02:09:16.347Z,32.20
2019-05-01T02:11:46.807Z,45.20
2019-05-01T02:14:15.546Z,40.87
2019-05-01T02:16:44.180Z,40.63
2019-05-01T02:19:12.864Z,47.13
2019-05-01T02:21:41.485Z,38.40
2019-05-01T02:24:10.081Z,47.23
2019-05-01T02:26:40.806Z,45.80
2019-05-01T02:29:26.079Z,43.53
2019-05-01T02:31:56.972Z,47.50
2019-05-01T02:34:27.038Z,52.03
2019-05-01T02:36:58.605Z,43.37
2019-05-01T02:39:29.391Z,43.97
2019-05-01T02:42:01.247Z,44.60
2019-05-01T02:44:38.617Z,49.10
2019-05-01T02:47:10.372Z,44.27
2019-05-01T02:49:42.030Z,49.47
2019-05-01T02:52:12.923Z,50.40
2019-05-01T02:54:44.500Z,40.07
2019-05-01T02:57:20.976Z,45.20
2019-05-01T02:59:52.760Z,43.60
2019-05-01T03:02:24.461Z,42.97
2019-05-01T03:04:54.356Z,37.23
2019-05-01T03:07:24.629Z,36.47
2019-05-01T03:09:53.559Z,31.93
2019-05-01T03:12:25.222Z,36.87
2019-05-01T03:14:55.916Z,38.43
2019-05-01T03:17:41.287Z,28.17
2019-05-01T03:20:28.091Z,30.53
2019-05-01T03:23:15.413Z,37.10
2019-05-01T03:25:44.124Z,32.13
2019-05-01T03:28:14.094Z,38.37
2019-05-01T03:30:42.812Z,35.30
2019-05-01T03:33:11.440Z,32.80
2019-05-01T03:35:40.342Z,35.57
2019-05-01T03:38:09.277Z,32.63
2019-05-01T03:40:38.200Z,33.07
2019-05-01T03:43:06.985Z,29.97
2019-05-01T03:45:35.547Z,30.50
2019-05-01T03:48:04.232Z,32.17
2019-05-01T03:50:33.050Z,30.93
2019-05-01T03:53:01.844Z,30.70
2019-05-01T03:55:30.487Z,34.37
2019-05-01T03:57:59.427Z,44.57
2019-05-01T04:00:38.596Z,49.77
2019-05-01T04:03:25.426Z,52.73
2019-05-01T04:05:54.526Z,79.83
2019-05-01T04:08:23.151Z,52.93
2019-05-01T04:10:52.059Z,64.63
2019-05-01T04:13:20.768Z,64.77
2019-05-01T04:15:49.542Z,49.00
2019-05-01T04:18:18.365Z,55.53
2019-05-01T04:20:47.171Z,60.43
2019-05-01T04:23:15.908Z,65.53
2019-05-01T04:25:44.596Z,59.43
2019-05-01T04:28:34.334Z,54.80
2019-05-01T04:31:05.380Z,58.77
2019-05-01T04:33:35.279Z,61.80
2019-05-01T04:36:05.912Z,60.17
2019-05-01T04:38:35.129Z,67.80
2019-05-01T04:41:03.759Z,60.17
2019-05-01T04:43:32.400Z,61.87
2019-05-01T04:46:01.808Z,70.53
2019-05-01T04:48:30.742Z,62.60
2019-05-01T04:50:59.823Z,54.10
2019-05-01T04:53:28.612Z,61.77
2019-05-01T04:55:57.796Z,53.63
2019-05-01T04:58:27.871Z,47.47
2019-05-01T05:00:56.506Z,61.17
2019-05-01T05:03:26.807Z,58.70
2019-05-01T05:05:56.132Z,67.40
2019-05-01T05:08:25.155Z,51.97
2019-05-01T05:10:56.184Z,53.90
2019-05-01T05:13:35.347Z,58.20
2019-05-01T05:16:22.125Z,48.53
2019-05-01T05:18:50.947Z,56.23
2019-05-01T05:21:19.579Z,54.83
2019-05-01T05:23:49.003Z,53.07
2019-05-01T05:26:17.649Z,57.67
2019-05-01T05:28:46.671Z,53.73
2019-05-01T05:31:18.151Z,58.60
2019-05-01T05:33:48.375Z,58.27
2019-05-01T05:36:17.369Z,52.90
2019-05-01T05:38:48.256Z,58.87
2019-05-01T05:41:18.949Z,62.57
2019-05-01T05:43:48.455Z,59.37
2019-05-01T05:46:17.264Z,68.67
2019-05-01T05:48:45.988Z,61.63
2019-05-01T05:51:30.555Z,62.43
2019-05-01T05:54:03.708Z,54.37
2019-05-01T05:56:44.560Z,51.50
2019-05-01T05:59:20.550Z,59.03
2019-05-01T06:01:55.383Z,48.20
2019-05-01T06:04:36.519Z,50.00
2019-05-01T06:07:20.260Z,62.97
2019-05-01T06:10:01.776Z,61.90
2019-05-01T06:12:41.650Z,61.77
2019-05-01T06:15:15.972Z,53.87
2019-05-01T06:17:46.301Z,50.40
2019-05-01T06:20:20.908Z,53.03
2019-05-01T06:23:08.585Z,47.90
2019-05-01T06:25:41.398Z,50.37
2019-05-01T06:28:11.212Z,49.23
2019-05-01T06:30:42.092Z,55.33
2019-05-01T06:33:11.312Z,52.33
2019-05-01T06:35:40.218Z,46.03
2019-05-01T06:38:14.880Z,48.43
2019-05-01T06:40:46.772Z,48.77
2019-05-01T06:43:27.169Z,40.50
2019-05-01T06:46:12.906Z,47.87
2019-05-01T06:49:01.082Z,44.50
2019-05-01T06:51:34.876Z,43.03
2019-05-01T06:54:11.207Z,46.20
2019-05-01T06:56:38.207Z,40.97
2019-05-01T06:59:07.320Z,35.80
2019-05-01T07:01:36.976Z,36.87
2019-05-01T07:04:06.477Z,36.37
2019-05-01T07:06:36.528Z,35.97
2019-05-01T07:09:11.780Z,31.33
2019-05-01T07:11:42.127Z,31.87
2019-05-01T07:14:11.143Z,32.20
2019-05-01T07:16:40.616Z,31.87
2019-05-01T07:19:10.061Z,34.27
2019-05-01T07:21:38.692Z,27.47
2019-05-01T07:24:07.369Z,31.77
2019-05-01T07:26:36.083Z,29.37
2019-05-01T07:29:18.331Z,31.10
2019-05-01T07:31:47.060Z,29.77
2019-05-01T07:34:16.892Z,30.30
2019-05-01T07:36:50.169Z,26.93
2019-05-01T07:39:16.246Z,27.03
2019-05-01T07:41:45.292Z,25.53
2019-05-01T07:44:18.625Z,27.10
2019-05-01T07:47:01.272Z,29.03
2019-05-01T07:49:47.845Z,26.87
2019-05-01T07:52:17.205Z,26.63
2019-05-01T07:54:47.206Z,24.67
2019-05-01T07:57:17.089Z,28.10
2019-05-01T07:59:45.716Z,25.10
2019-05-01T08:02:14.721Z,27.23
2019-05-01T08:04:43.292Z,31.00
2019-05-01T08:07:12.023Z,26.27
2019-05-01T08:09:40.743Z,27.97
2019-05-01T08:12:09.323Z,29.40
2019-05-01T08:14:37.949Z,29.53
2019-05-01T08:17:06.610Z,28.10
2019-05-01T08:19:39.470Z,27.17
2019-05-01T08:22:08.751Z,29.50
2019-05-01T08:24:37.392Z,29.43
2019-05-01T08:27:07.752Z,33.63
2019-05-01T08:29:55.895Z,34.47
2019-05-01T08:32:41.023Z,32.93
2019-05-01T08:35:11.369Z,32.60
2019-05-01T08:37:39.951Z,32.03
2019-05-01T08:40:08.760Z,29.50
2019-05-01T08:42:37.687Z,30.60
2019-05-01T08:45:12.299Z,32.47
2019-05-01T08:47:51.063Z,32.97
2019-05-01T08:50:24.701Z,34.33
2019-05-01T08:52:51.631Z,33.90
2019-05-01T08:55:20.209Z,34.83
2019-05-01T08:57:48.855Z,31.53
2019-05-01T09:00:17.639Z,32.87
2019-05-01T09:02:46.290Z,32.97
2019-05-01T09:05:28.225Z,34.03
2019-05-01T09:07:45.455Z,31.50
2019-05-01T09:10:17.172Z,32.77
2019-05-01T09:12:46.803Z,35.07
2019-05-01T09:15:15.754Z,33.47
2019-05-01T09:17:44.348Z,34.80
2019-05-01T09:20:16.440Z,31.40
2019-05-01T09:22:43.775Z,36.00
2019-05-01T09:25:14.211Z,36.87
2019-05-01T09:27:53.490Z,34.37
2019-05-01T09:30:30.046Z,29.97
2019-05-01T09:32:58.722Z,31.57
2019-05-01T09:35:27.412Z,32.80
2019-05-01T09:37:56.019Z,26.50
2019-05-01T09:40:24.555Z,30.43
2019-05-01T09:42:54.735Z,29.10
2019-05-01T09:45:23.444Z,33.07
2019-05-01T09:47:52.117Z,29.17
2019-05-01T09:50:20.824Z,25.33
2019-05-01T09:53:07.283Z,32.53
2019-05-01T09:55:40.463Z,24.53
2019-05-01T09:58:09.084Z,26.80
2019-05-01T10:00:37.698Z,29.37
2019-05-01T10:03:06.789Z,26.07
2019-05-01T10:05:38.035Z,25.57
2019-05-01T10:08:05.706Z,24.87
2019-05-01T10:10:36.944Z,24.27
2019-05-01T10:13:04.854Z,27.87
2019-05-01T10:15:33.407Z,27.03
2019-05-01T10:18:01.987Z,28.73
2019-05-01T10:20:30.550Z,31.03
2019-05-01T10:22:59.359Z,24.23
2019-05-01T10:25:27.923Z,25.77
2019-05-01T10:27:58.172Z,33.27
2019-05-01T10:30:43.966Z,30.20
2019-05-01T10:33:14.462Z,34.00
2019-05-01T10:35:44.677Z,29.33
2019-05-01T10:38:13.262Z,29.47
2019-05-01T10:40:41.896Z,31.87
2019-05-01T10:43:10.648Z,28.93
2019-05-01T10:45:40.368Z,29.77
2019-05-01T10:48:08.969Z,36.37
2019-05-01T10:50:37.678Z,29.50
2019-05-01T10:53:06.521Z,24.10
2019-05-01T10:55:35.276Z,26.50
2019-05-01T10:58:03.924Z,25.67
2019-05-01T11:00:32.981Z,18.53
2019-05-01T11:03:01.645Z,19.80
2019-05-01T11:05:30.235Z,23.77
2019-05-01T11:07:58.838Z,22.23
2019-05-01T11:10:28.976Z,23.13
2019-05-01T11:12:57.794Z,25.83
2019-05-01T11:15:26.464Z,23.63
2019-05-01T11:17:55.015Z,22.37
2019-05-01T11:20:23.674Z,20.83
2019-05-01T11:22:52.299Z,21.50
2019-05-01T11:25:22.306Z,19.93
2019-05-01T11:27:50.943Z,22.70
2019-05-01T11:30:19.671Z,26.90
2019-05-01T11:33:01.819Z,19.00
2019-05-01T11:35:50.575Z,21.93
2019-05-01T11:38:20.860Z,19.00
2019-05-01T11:40:59.976Z,20.67
2019-05-01T11:43:28.497Z,19.57
2019-05-01T11:45:57.223Z,22.80
2019-05-01T11:48:30.279Z,20.20
2019-05-01T11:50:56.131Z,18.67
2019-05-01T11:53:44.022Z,23.57
2019-05-01T11:56:12.595Z,23.17
2019-05-01T11:58:41.167Z,27.90
2019-05-01T12:01:11.576Z,24.67
2019-05-01T12:03:40.136Z,21.83
2019-05-01T12:06:16.466Z,23.73
2019-05-01T12:08:38.983Z,19.80
2019-05-01T12:11:09.404Z,17.87
2019-05-01T12:13:44.037Z,17.27
2019-05-01T12:16:09.807Z,17.67
2019-05-01T12:18:38.487Z,16.47
2019-05-01T12:21:07.075Z,16.37
2019-05-01T12:23:35.631Z,17.47
2019-05-01T12:26:04.208Z,15.77
2019-05-01T12:28:32.771Z,20.73
2019-05-01T12:31:01.356Z,20.70
2019-05-01T12:33:29.940Z,15.97
2019-05-01T12:36:00.207Z,19.10
2019-05-01T12:38:28.807Z,15.90
2019-05-01T12:41:15.340Z,17.63
2019-05-01T12:43:44.166Z,18.13
2019-05-01T12:46:14.424Z,19.60
2019-05-01T12:48:43.064Z,16.50
2019-05-01T12:51:11.723Z,17.43
2019-05-01T12:53:41.919Z,15.87
2019-05-01T12:56:15.129Z,17.03
2019-05-01T12:58:43.696Z,14.87
2019-05-01T13:01:12.345Z,19.77
2019-05-01T13:03:40.908Z,14.93
2019-05-01T13:06:10.163Z,17.73
2019-05-01T13:08:38.716Z,18.83
2019-05-01T13:11:07.304Z,22.63
2019-05-01T13:13:35.861Z,19.43
2019-05-01T13:16:04.504Z,18.83
2019-05-01T13:18:33.061Z,20.40
2019-05-01T13:21:01.650Z,19.37
2019-05-01T13:23:30.217Z,19.17
2019-05-01T13:26:00.430Z,18.17
2019-05-01T13:28:39.947Z,21.80
2019-05-01T13:31:13.243Z,21.70
2019-05-01T13:33:41.889Z,21.50
2019-05-01T13:36:10.536Z,24.40
2019-05-01T13:38:39.116Z,20.03
2019-05-01T13:41:07.739Z,24.93
2019-05-01T13:43:37.562Z,21.27
2019-05-01T13:46:06.193Z,19.67
2019-05-01T13:48:36.943Z,19.60
2019-05-01T13:51:05.502Z,21.77
2019-05-01T13:53:34.088Z,19.07
2019-05-01T13:56:03.131Z,19.07
2019-05-01T13:58:31.792Z,21.43
2019-05-01T14:01:00.414Z,24.10
2019-05-01T14:03:29.060Z,22.80
2019-05-01T14:05:57.606Z,16.40
2019-05-01T14:08:26.106Z,18.20
2019-05-01T14:10:54.650Z,16.27
2019-05-01T14:13:23.227Z,17.43
2019-05-01T14:15:51.850Z,22.67
2019-05-01T14:18:20.426Z,20.77
2019-05-01T14:20:53.291Z,20.90
2019-05-01T14:23:23.523Z,18.07
2019-05-01T14:25:56.803Z,15.57
2019-05-01T14:28:25.384Z,22.03
2019-05-01T14:30:53.930Z,17.57
2019-05-01T14:33:22.431Z,17.57
2019-05-01T14:35:50.982Z,23.07
2019-05-01T14:38:19.554Z,18.67
2019-05-01T14:40:48.110Z,20.33
2019-05-01T14:43:16.691Z,21.03
2019-05-01T14:45:45.248Z,20.93
2019-05-01T14:48:13.823Z,18.83
2019-05-01T14:50:42.370Z,22.77
2019-05-01T14:53:11.019Z,20.30
2019-05-01T14:55:39.630Z,19.47
2019-05-01T14:58:08.214Z,17.73
2019-05-01T15:00:36.826Z,20.30
2019-05-01T15:03:05.396Z,22.73
2019-05-01T15:05:34.614Z,25.27
2019-05-01T15:08:03.274Z,18.33
2019-05-01T15:10:31.833Z,19.93
2019-05-01T15:13:05.044Z,18.27
2019-05-01T15:15:39.033Z,20.57
2019-05-01T15:18:25.507Z,22.07
2019-05-01T15:20:53.987Z,20.13
2019-05-01T15:23:22.558Z,21.33
2019-05-01T15:25:51.119Z,20.20
2019-05-01T15:28:19.730Z,19.90
2019-05-01T15:30:48.210Z,18.30
2019-05-01T15:33:16.793Z,17.00
2019-05-01T15:35:45.347Z,18.40
2019-05-01T15:38:13.956Z,21.73
2019-05-01T15:40:44.127Z,16.50
2019-05-01T15:43:26.274Z,20.83
2019-05-01T15:45:54.817Z,23.97
2019-05-01T15:48:23.440Z,21.03
2019-05-01T15:50:52.791Z,20.00
2019-05-01T15:53:22.583Z,20.53
2019-05-01T15:55:51.177Z,17.23
2019-05-01T15:58:19.734Z,18.57
2019-05-01T16:00:48.418Z,16.53
2019-05-01T16:03:16.979Z,22.30
2019-05-01T16:05:45.556Z,17.63
2019-05-01T16:08:14.191Z,18.10
2019-05-01T16:10:50.586Z,20.47
2019-05-01T16:13:19.213Z,20.47
2019-05-01T16:15:47.883Z,20.83
2019-05-01T16:18:16.443Z,19.10
2019-05-01T16:20:45.023Z,17.83
2019-05-01T16:23:13.603Z,22.07
2019-05-01T16:25:42.166Z,20.77
2019-05-01T16:28:10.764Z,20.00
2019-05-01T16:30:39.423Z,20.90
2019-05-01T16:33:07.983Z,19.70
2019-05-01T16:35:36.564Z,18.47
2019-05-01T16:38:06.899Z,18.90
2019-05-01T16:40:55.510Z,20.23
2019-05-01T16:43:23.999Z,22.83
2019-05-01T16:45:52.653Z,19.07
2019-05-01T16:48:21.207Z,19.57
2019-05-01T16:50:49.788Z,18.27
2019-05-01T16:53:18.411Z,21.97
2019-05-01T16:55:47.048Z,18.33
2019-05-01T16:58:16.174Z,22.83
2019-05-01T17:01:00.804Z,20.00
2019-05-01T17:03:36.941Z,20.77
2019-05-01T17:06:10.871Z,22.27
2019-05-01T17:08:56.196Z,20.63
2019-05-01T17:11:26.559Z,23.03
2019-05-01T17:13:55.371Z,21.30
2019-05-01T17:16:24.207Z,23.43
2019-05-01T17:18:52.771Z,22.37
2019-05-01T17:21:21.424Z,19.67
2019-05-01T17:23:49.980Z,21.37
2019-05-01T17:26:18.646Z,26.63
2019-05-01T17:28:47.284Z,22.20
2019-05-01T17:31:16.072Z,20.40
2019-05-01T17:33:44.764Z,24.40
2019-05-01T17:36:13.411Z,21.23
2019-05-01T17:38:49.261Z,21.00
2019-05-01T17:41:12.266Z,24.07
2019-05-01T17:43:44.776Z,24.50
2019-05-01T17:46:12.056Z,25.43
2019-05-01T17:48:40.677Z,21.70
2019-05-01T17:51:09.279Z,29.23
2019-05-01T17:53:37.952Z,39.67
2019-05-01T17:56:42.859Z,28.83
2019-05-01T17:59:11.377Z,23.60
2019-05-01T18:01:41.680Z,25.27
2019-05-01T18:04:28.475Z,19.27
2019-05-01T18:06:57.129Z,22.77
2019-05-01T18:09:25.713Z,27.77
2019-05-01T18:11:54.351Z,24.80
2019-05-01T18:14:22.892Z,24.07
2019-05-01T18:16:51.579Z,21.13
2019-05-01T18:19:20.239Z,22.17
2019-05-01T18:21:51.769Z,20.70
2019-05-01T18:24:26.928Z,21.60
2019-05-01T18:27:06.414Z,24.47
2019-05-01T18:29:40.129Z,24.70
2019-05-01T18:32:10.158Z,25.50
2019-05-01T18:34:39.494Z,23.03
2019-05-01T18:37:18.969Z,23.67
2019-05-01T18:39:48.909Z,23.13
2019-05-01T18:42:17.746Z,22.70
2019-05-01T18:44:47.561Z,22.23
2019-05-01T18:47:16.804Z,24.47
2019-05-01T18:49:45.366Z,22.70
2019-05-01T18:52:14.124Z,22.03
2019-05-01T18:54:42.696Z,24.00
2019-05-01T18:57:12.088Z,25.97
2019-05-01T18:59:42.811Z,23.50
2019-05-01T19:02:11.738Z,22.13
2019-05-01T19:04:40.423Z,24.17
2019-05-01T19:07:09.148Z,24.10
2019-05-01T19:09:39.190Z,27.03
2019-05-01T19:12:09.594Z,25.63
2019-05-01T19:14:38.313Z,27.80
2019-05-01T19:17:07.071Z,22.40
2019-05-01T19:19:35.903Z,25.50
2019-05-01T19:22:06.320Z,32.47
2019-05-01T19:24:37.861Z,29.03
2019-05-01T19:27:05.641Z,26.27
2019-05-01T19:29:34.363Z,30.90
2019-05-01T19:32:03.079Z,26.47
2019-05-01T19:34:31.767Z,35.30
2019-05-01T19:37:00.549Z,35.77
2019-05-01T19:39:42.420Z,29.03
2019-05-01T19:41:59.680Z,31.33
2019-05-01T19:44:28.502Z,26.13
2019-05-01T19:46:57.100Z,29.53
2019-05-01T19:49:29.712Z,28.80
2019-05-01T19:52:00.772Z,29.13
2019-05-01T19:54:28.004Z,32.30
2019-05-01T19:56:56.817Z,28.07
2019-05-01T19:59:25.490Z,26.63
2019-05-01T20:01:54.163Z,31.83
2019-05-01T20:04:22.744Z,31.87
2019-05-01T20:06:51.340Z,33.83
2019-05-01T20:09:20.070Z,41.97
2019-05-01T20:11:48.709Z,42.57
2019-05-01T20:14:19.287Z,46.07
2019-05-01T20:16:50.750Z,41.73
2019-05-01T20:19:18.665Z,42.17
2019-05-01T20:21:47.422Z,41.30
2019-05-01T20:24:18.987Z,42.73
2019-05-01T20:26:46.545Z,49.57
2019-05-01T20:29:17.637Z,36.90
2019-05-01T20:31:50.640Z,39.57
2019-05-01T20:34:19.177Z,34.93
2019-05-01T20:36:47.836Z,35.80
2019-05-01T20:39:16.505Z,36.43
2019-05-01T20:41:45.153Z,34.33
2019-05-01T20:44:18.565Z,30.97
2019-05-01T20:46:44.239Z,43.70
2019-05-01T20:49:14.557Z,56.23
2019-05-01T20:51:43.211Z,38.43
2019-05-01T20:54:11.828Z,36.43
2019-05-01T20:56:42.125Z,37.23
2019-05-01T20:59:10.862Z,35.07
2019-05-01T21:01:39.742Z,38.00
2019-05-01T21:04:28.110Z,34.37
2019-05-01T21:07:15.448Z,33.23
2019-05-01T21:09:57.772Z,37.37
2019-05-01T21:12:24.981Z,33.70
2019-05-01T21:14:53.763Z,34.67
2019-05-01T21:17:22.691Z,34.47
2019-05-01T21:19:51.350Z,38.43
2019-05-01T21:22:20.066Z,34.57
2019-05-01T21:24:48.907Z,38.70
2019-05-01T21:27:17.441Z,39.33
2019-05-01T21:29:46.014Z,42.17
2019-05-01T21:32:18.212Z,32.80
2019-05-01T21:34:44.915Z,37.53
2019-05-01T21:37:13.694Z,32.40
2019-05-01T21:39:43.681Z,35.33
2019-05-01T21:42:16.095Z,30.73
2019-05-01T21:44:43.629Z,35.53
2019-05-01T21:47:13.923Z,36.23
2019-05-01T21:49:42.990Z,36.53
2019-05-01T21:52:13.538Z,34.40
2019-05-01T21:54:41.979Z,34.77
2019-05-01T21:57:11.941Z,40.07
2019-05-01T21:59:44.762Z,37.87
2019-05-01T22:02:11.990Z,40.00
2019-05-01T22:04:40.788Z,37.00
2019-05-01T22:07:09.732Z,33.70
2019-05-01T22:09:38.710Z,34.63
2019-05-01T22:12:08.279Z,32.90
2019-05-01T22:14:42.462Z,38.50
2019-05-01T22:17:15.785Z,39.23
2019-05-01T22:19:44.345Z,39.03
2019-05-01T22:22:29.872Z,35.67
2019-05-01T22:25:00.210Z,35.13
2019-05-01T22:27:39.689Z,35.43
2019-05-01T22:30:12.736Z,42.33
2019-05-01T22:32:43.121Z,34.40
2019-05-01T22:35:16.337Z,32.80
2019-05-01T22:37:45.134Z,33.47
2019-05-01T22:40:16.722Z,35.03
2019-05-01T22:42:45.299Z,38.30
2019-05-01T22:45:19.857Z,35.27
2019-05-01T22:47:50.752Z,37.37
2019-05-01T22:50:19.225Z,40.30
2019-05-01T22:52:47.887Z,34.13
2019-05-01T22:55:20.464Z,31.67
2019-05-01T22:57:47.230Z,36.63
2019-05-01T23:00:32.417Z,36.57
2019-05-01T23:03:05.339Z,35.63
2019-05-01T23:05:33.013Z,38.43
2019-05-01T23:08:01.671Z,34.17
2019-05-01T23:10:31.345Z,37.00
2019-05-01T23:13:00.005Z,37.20
2019-05-01T23:15:30.346Z,38.80
2019-05-01T23:17:58.937Z,36.87
2019-05-01T23:20:27.634Z,37.20
2019-05-01T23:22:56.281Z,37.37
2019-05-01T23:25:24.860Z,43.17
2019-05-01T23:27:53.510Z,33.77
2019-05-01T23:30:22.885Z,38.17
2019-05-01T23:32:51.610Z,38.23
2019-05-01T23:35:20.238Z,34.20
2019-05-01T23:37:48.983Z,38.40
2019-05-01T23:40:17.681Z,38.90
2019-05-01T23:42:52.265Z,39.83
2019-05-01T23:45:16.847Z,37.67
2019-05-01T23:47:45.494Z,42.00
2019-05-01T23:50:14.193Z,42.07
2019-05-01T23:52:42.758Z,38.27
2019-05-01T23:55:11.568Z,36.83
2019-05-01T23:57:40.209Z,37.27
